Time,TemperatureF,DewpointF,PressureIn,WindDirection,WindDirectionDegrees,WindSpeedMPH,WindSpeedGustMPH,Humidity,HourlyPrecipIn,Conditions,Clouds,dailyrainin,SoftwareType,DateUTC
2013-09-10 00:57:00,74.6,74.6,30.15,ENE,59,0.0,0.0,100,0.00,,,0.00,Meteorologica,2013-09-10 04:57:00,
2013-09-10 01:00:00,76.4,69.9,30.23,East,84,0.0,0.0,80,0.00,,,0.00,Meteorologica,2013-09-10 05:00:00,
2013-09-10 01:01:00,76.5,70.0,30.23,East,84,0.0,0.0,80,0.00,,,0.00,Meteorologica,2013-09-10 05:01:00,
2013-09-10 01:02:00,74.6,74.6,30.15,ENE,59,0.0,0.0,100,0.00,,,0.00,Meteorologica,2013-09-10 05:02:00,
2013-09-10 01:03:00,76.4,70.1,30.23,East,84,0.0,0.0,80,0.00,,,0.00,Meteorologica,2013-09-10 05:03:00,
2013-09-10 01:04:00,76.3,70.1,30.23,East,84,0.0,0.0,80,0.00,,,0.00,Meteorologica,2013-09-10 05:04:00,
2013-09-10 01:05:00,76.2,70.0,30.23,East,84,0.0,0.0,80,0.00,,,0.00,Meteorologica,2013-09-10 05:05:00,
2013-09-10 01:06:00,76.4,70.2,30.23,East,84,0.0,0.0,80,0.00,,,0.00,Meteorologica,2013-09-10 05:06:00,
2013-09-10 01:07:00,76.3,70.1,30.23,East,84,0.0,0.0,81,0.00,,,0.00,Meteorologica,2013-09-10 05:07:00,
2013-09-10 01:08:00,74.4,74.4,30.15,ENE,59,0.0,0.0,100,0.00,,,0.00,Meteorologica,2013-09-10 05:08:00,
2013-09-10 01:09:00,76.2,70.1,30.23,East,84,0.0,0.0,81,0.00,,,0.00,Meteorologica,2013-09-10 05:09:00,
2013-09-10 01:10:00,76.2,70.2,30.23,East,84,0.0,0.0,81,0.00,,,0.00,Meteorologica,2013-09-10 05:10:00,
2013-09-10 01:11:00,76.1,70.1,30.23,East,84,0.0,0.0,81,0.00,,,0.00,Meteorologica,2013-09-10 05:11:00,
2013-09-10 01:12:00,76.1,70.1,30.23,East,84,0.0,0.0,81,0.00,,,0.00,Meteorologica,2013-09-10 05:12:00,
2013-09-10 01:13:00,74.4,74.4,30.15,ENE,59,0.0,0.0,100,0.00,,,0.00,Meteorologica,2013-09-10 05:13:00,
2013-09-10 01:14:00,76.1,70.3,30.23,East,84,0.0,0.0,82,0.00,,,0.00,Meteorologica,2013-09-10 05:14:00,
2013-09-10 01:15:00,76.0,70.3,30.23,East,84,0.0,0.0,82,0.00,,,0.00,Meteorologica,2013-09-10 05:15:00,
2013-09-10 01:16:00,76.1,70.4,30.23,East,84,0.0,0.0,82,0.00,,,0.00,Meteorologica,2013-09-10 05:16:00,
2013-09-10 01:17:00,76.1,70.4,30.23,East,84,0.0,0.0,82,0.00,,,0.00,Meteorologica,2013-09-10 05:17:00,
2013-09-10 01:18:00,76.0,70.5,30.23,East,84,0.0,0.0,82,0.00,,,0.00,Meteorologica,2013-09-10 05:18:00,
2013-09-10 01:19:00,74.3,74.3,30.15,ENE,59,0.0,0.0,100,0.00,,,0.00,Meteorologica,2013-09-10 05:19:00,
2013-09-10 01:20:00,76.1,70.7,30.23,East,84,0.0,0.0,83,0.00,,,0.00,Meteorologica,2013-09-10 05:20:00,
2013-09-10 01:21:00,75.9,70.5,30.23,East,84,0.0,0.0,83,0.00,,,0.00,Meteorologica,2013-09-10 05:21:00,
2013-09-10 01:22:00,75.9,70.6,30.23,East,84,0.0,0.0,83,0.00,,,0.00,Meteorologica,2013-09-10 05:22:00,
2013-09-10 01:23:00,75.9,70.7,30.23,East,84,0.0,0.0,83,0.00,,,0.00,Meteorologica,2013-09-10 05:23:00,
2013-09-10 01:24:00,74.3,74.3,30.14,ENE,59,0.0,0.0,100,0.00,,,0.00,Meteorologica,2013-09-10 05:24:00,
2013-09-10 01:25:00,76.0,71.0,30.23,East,84,0.0,0.0,84,0.00,,,0.00,Meteorologica,2013-09-10 05:25:00,
2013-09-10 01:26:00,75.9,71.0,30.23,East,84,0.0,0.0,84,0.00,,,0.00,Meteorologica,2013-09-10 05:26:00,
2013-09-10 01:27:00,75.9,71.1,30.23,East,84,0.0,0.0,85,0.00,,,0.00,Meteorologica,2013-09-10 05:27:00,
2013-09-10 01:28:00,75.8,71.1,30.23,East,84,0.0,0.0,85,0.00,,,0.00,Meteorologica,2013-09-10 05:28:00,
2013-09-10 01:29:00,75.8,71.2,30.23,East,84,0.0,0.0,85,0.00,,,0.00,Meteorologica,2013-09-10 05:29:00,
2013-09-10 01:30:00,74.2,74.2,30.15,ENE,59,0.0,0.0,100,0.00,,,0.00,Meteorologica,2013-09-10 05:30:00,
2013-09-10 01:31:00,75.8,71.3,30.23,East,84,0.0,0.0,86,0.00,,,0.00,Meteorologica,2013-09-10 05:31:00,
2013-09-10 01:32:00,75.7,71.2,30.23,East,84,0.0,0.0,86,0.00,,,0.00,Meteorologica,2013-09-10 05:32:00,
2013-09-10 01:33:00,75.9,71.5,30.23,East,84,0.0,0.0,86,0.00,,,0.00,Meteorologica,2013-09-10 05:33:00,
2013-09-10 01:34:00,75.7,71.2,30.23,East,84,0.0,0.0,86,0.00,,,0.00,Meteorologica,2013-09-10 05:34:00,
2013-09-10 01:35:00,75.7,71.2,30.23,East,84,0.0,0.0,85,0.00,,,0.00,Meteorologica,2013-09-10 05:35:00,
2013-09-10 01:36:00,75.7,71.2,30.23,East,84,0.0,0.0,85,0.00,,,0.00,Meteorologica,2013-09-10 05:36:00,
2013-09-10 01:37:00,75.6,71.1,30.23,East,84,0.0,0.0,86,0.00,,,0.00,Meteorologica,2013-09-10 05:37:00,
2013-09-10 01:38:00,75.7,71.4,30.23,East,84,0.0,0.0,86,0.00,,,0.00,Meteorologica,2013-09-10 05:38:00,
2013-09-10 01:39:00,75.6,71.4,30.23,East,84,0.0,0.0,86,0.00,,,0.00,Meteorologica,2013-09-10 05:39:00,
2013-09-10 01:40:00,75.7,71.6,30.23,East,84,0.0,0.0,87,0.00,,,0.00,Meteorologica,2013-09-10 05:40:00,
2013-09-10 01:41:00,75.6,71.7,30.23,East,84,0.0,0.0,87,0.00,,,0.00,Meteorologica,2013-09-10 05:41:00,
2013-09-10 01:42:00,75.5,71.7,30.23,East,84,0.0,0.0,88,0.00,,,0.00,Meteorologica,2013-09-10 05:42:00,
2013-09-10 01:43:00,75.3,71.9,30.23,East,84,0.0,0.0,89,0.00,,,0.00,Meteorologica,2013-09-10 05:43:00,
2013-09-10 01:44:00,75.4,72.2,30.23,East,84,0.0,0.0,89,0.00,,,0.00,Meteorologica,2013-09-10 05:44:00,
2013-09-10 01:45:00,75.4,72.4,30.23,East,84,0.0,0.0,90,0.00,,,0.00,Meteorologica,2013-09-10 05:45:00,
2013-09-10 01:46:00,75.3,72.4,30.23,East,84,0.0,0.0,90,0.00,,,0.00,Meteorologica,2013-09-10 05:46:00,
2013-09-10 01:47:00,75.3,72.4,30.23,East,84,0.0,0.0,90,0.00,,,0.00,Meteorologica,2013-09-10 05:47:00,
2013-09-10 01:48:00,75.2,72.4,30.23,East,84,0.0,0.0,91,0.00,,,0.00,Meteorologica,2013-09-10 05:48:00,
2013-09-10 01:49:00,75.1,72.4,30.23,East,84,0.0,0.0,91,0.00,,,0.00,Meteorologica,2013-09-10 05:49:00,
2013-09-10 01:50:00,75.2,72.6,30.23,East,84,0.0,0.0,91,0.00,,,0.00,Meteorologica,2013-09-10 05:50:00,
2013-09-10 01:51:00,75.0,72.4,30.23,East,84,0.0,0.0,91,0.00,,,0.00,Meteorologica,2013-09-10 05:51:00,
2013-09-10 01:52:00,75.0,72.5,30.23,East,84,0.0,0.0,92,0.00,,,0.00,Meteorologica,2013-09-10 05:52:00,
2013-09-10 01:53:00,75.0,72.6,30.23,East,84,0.0,0.0,92,0.00,,,0.00,Meteorologica,2013-09-10 05:53:00,
2013-09-10 01:54:00,75.0,72.7,30.23,East,84,0.0,0.0,92,0.00,,,0.00,Meteorologica,2013-09-10 05:54:00,
2013-09-10 01:55:00,74.9,72.9,30.23,East,84,0.0,0.0,93,0.00,,,0.00,Meteorologica,2013-09-10 05:55:00,
2013-09-10 01:56:00,74.8,73.0,30.23,East,84,0.0,0.0,94,0.00,,,0.00,Meteorologica,2013-09-10 05:56:00,
2013-09-10 01:57:00,74.8,73.1,30.22,East,84,0.0,0.0,94,0.00,,,0.00,Meteorologica,2013-09-10 05:57:00,
2013-09-10 01:58:00,74.8,73.1,30.23,East,84,0.0,0.0,94,0.00,,,0.00,Meteorologica,2013-09-10 05:58:00,
2013-09-10 01:59:00,74.8,73.1,30.22,East,84,0.0,0.0,94,0.00,,,0.00,Meteorologica,2013-09-10 05:59:00,
2013-09-10 02:00:00,73.7,73.7,30.16,ENE,59,0.0,0.0,100,0.00,,,0.00,Meteorologica,2013-09-10 06:00:00,
2013-09-10 03:00:00,73.1,73.1,30.16,ENE,59,0.0,0.0,100,0.00,,,0.00,Meteorologica,2013-09-10 07:00:00,
2013-09-10 04:00:00,72.9,72.9,30.17,ENE,59,0.0,0.0,100,0.00,,,0.00,Meteorologica,2013-09-10 08:00:00,
2013-09-10 04:05:00,72.7,72.7,30.17,ENE,59,0.0,0.0,100,0.00,,,0.00,Meteorologica,2013-09-10 08:05:00,
2013-09-10 05:00:00,71.8,71.8,30.18,ENE,59,0.0,0.0,100,0.00,,,0.00,Meteorologica,2013-09-10 09:00:00,
2013-09-10 06:00:00,71.6,71.6,30.19,ENE,59,0.0,0.0,100,0.00,,,0.00,Meteorologica,2013-09-10 10:00:00,
2013-09-10 07:00:00,71.0,71.0,30.20,ENE,59,0.0,0.0,100,0.00,,,0.00,Meteorologica,2013-09-10 11:00:00,
2013-09-10 08:00:00,70.6,70.6,30.22,ENE,59,0.0,0.0,100,0.00,,,0.00,Meteorologica,2013-09-10 12:00:00,
2013-09-10 08:05:00,70.7,70.7,30.22,ENE,59,0.0,0.0,100,0.00,,,0.00,Meteorologica,2013-09-10 12:05:00,
2013-09-10 08:10:00,70.6,70.6,30.22,ENE,59,0.0,0.0,100,0.00,,,0.00,Meteorologica,2013-09-10 12:10:00,
2013-09-10 08:16:00,70.7,70.7,30.22,ENE,59,0.0,0.0,100,0.00,,,0.00,Meteorologica,2013-09-10 12:16:00,
2013-09-10 08:21:00,70.9,70.9,30.22,ENE,59,0.0,0.0,100,0.00,,,0.00,Meteorologica,2013-09-10 12:21:00,
2013-09-10 08:26:00,70.9,70.9,30.22,ENE,59,0.0,0.0,100,0.00,,,0.00,Meteorologica,2013-09-10 12:26:00,
2013-09-10 08:31:00,71.0,71.0,30.23,ENE,59,0.0,0.0,100,0.00,,,0.00,Meteorologica,2013-09-10 12:31:00,
2013-09-10 09:00:00,72.0,72.0,30.23,ENE,59,0.0,0.0,100,0.00,,,0.00,Meteorologica,2013-09-10 13:00:00,
2013-09-10 09:05:00,72.2,72.2,30.24,ENE,59,0.0,0.0,100,0.00,,,0.00,Meteorologica,2013-09-10 13:05:00,
2013-09-10 09:10:00,72.5,72.5,30.24,ENE,59,0.0,0.0,100,0.00,,,0.00,Meteorologica,2013-09-10 13:10:00,
2013-09-10 09:15:00,72.7,72.7,30.23,ENE,59,0.0,0.0,100,0.00,,,0.00,Meteorologica,2013-09-10 13:15:00,
2013-09-10 09:21:00,72.8,72.8,30.24,ENE,59,0.0,0.0,100,0.00,,,0.00,Meteorologica,2013-09-10 13:21:00,
2013-09-10 09:26:00,73.0,73.0,30.24,East,80,1.6,0.0,100,0.00,,,0.00,Meteorologica,2013-09-10 13:26:00,
2013-09-10 09:31:00,73.3,73.3,30.24,NE,40,0.0,2.2,100,0.00,,,0.00,Meteorologica,2013-09-10 13:31:00,
2013-09-10 10:00:00,78.4,69.8,30.25,ESE,111,0.0,2.7,74,0.00,,,0.00,Meteorologica,2013-09-10 14:00:00,
2013-09-10 10:05:00,79.1,69.9,30.25,ESE,108,0.8,3.1,73,0.00,,,0.00,Meteorologica,2013-09-10 14:05:00,
2013-09-10 11:00:00,84.0,70.0,30.25,SE,139,1.0,1.0,62,0.00,,,0.00,Meteorologica,2013-09-10 15:00:00,
2013-09-10 11:05:00,83.8,69.9,30.25,ENE,74,0.0,5.8,62,0.00,,,0.00,Meteorologica,2013-09-10 15:05:00,
2013-09-10 11:10:00,83.7,69.5,30.25,SSW,207,1.7,4.7,61,0.00,,,0.00,Meteorologica,2013-09-10 15:10:00,
2013-09-10 11:15:00,84.4,70.3,30.25,ENE,64,1.4,4.9,62,0.00,,,0.00,Meteorologica,2013-09-10 15:15:00,
2013-09-10 11:20:00,83.9,69.9,30.25,East,87,2.2,5.5,62,0.00,,,0.00,Meteorologica,2013-09-10 15:20:00,
2013-09-10 11:25:00,83.4,69.9,30.25,East,96,0.1,3.2,63,0.00,,,0.00,Meteorologica,2013-09-10 15:25:00,
2013-09-10 12:00:00,84.4,69.3,30.25,SW,226,2.3,5.8,60,0.00,,,0.00,Meteorologica,2013-09-10 16:00:00,
2013-09-10 12:05:00,85.2,69.8,30.25,ESE,117,0.5,6.4,59,0.00,,,0.00,Meteorologica,2013-09-10 16:05:00,
2013-09-10 13:00:00,86.7,69.4,30.24,NNE,33,1.1,3.2,56,0.00,,,0.00,Meteorologica,2013-09-10 17:00:00,
2013-09-10 13:05:00,86.2,69.1,30.24,South,177,2.1,4.5,56,0.00,,,0.00,Meteorologica,2013-09-10 17:05:00,
2013-09-10 13:10:00,86.4,69.1,30.24,East,100,1.8,4.7,56,0.00,,,0.00,Meteorologica,2013-09-10 17:10:00,
2013-09-10 14:00:00,87.4,67.0,30.23,ENE,62,0.0,6.1,50,0.00,,,0.00,Meteorologica,2013-09-10 18:00:00,
2013-09-10 14:05:00,87.0,68.3,30.23,East,97,1.2,3.6,53,0.00,,,0.00,Meteorologica,2013-09-10 18:05:00,
2013-09-10 14:10:00,87.4,68.5,30.23,NNW,344,1.1,5.5,53,0.00,,,0.00,Meteorologica,2013-09-10 18:10:00,
2013-09-10 14:15:00,87.6,67.1,30.22,SSW,195,4.4,7.4,50,0.00,,,0.00,Meteorologica,2013-09-10 18:15:00,
2013-09-10 15:00:00,88.5,66.9,30.21,East,97,0.0,2.9,48,0.00,,,0.00,Meteorologica,2013-09-10 19:00:00,
2013-09-10 15:05:00,87.9,67.3,30.20,ENE,59,0.0,2.9,50,0.00,,,0.00,Meteorologica,2013-09-10 19:05:00,
2013-09-10 15:10:00,87.7,66.1,30.20,WSW,251,4.9,5.1,48,0.00,,,0.00,Meteorologica,2013-09-10 19:10:00,
2013-09-10 15:15:00,88.2,66.1,30.20,ENE,60,0.3,8.2,47,0.00,,,0.00,Meteorologica,2013-09-10 19:15:00,
2013-09-10 15:20:00,88.4,65.4,30.19,WSW,245,1.1,5.2,46,0.00,,,0.00,Meteorologica,2013-09-10 19:20:00,
2013-09-10 15:25:00,89.0,65.3,30.19,SW,235,2.6,6.0,45,0.00,,,0.00,Meteorologica,2013-09-10 19:25:00,
2013-09-10 15:30:00,89.5,66.2,30.19,SW,214,3.7,7.3,46,0.00,,,0.00,Meteorologica,2013-09-10 19:30:00,
2013-09-10 16:00:00,88.4,65.1,30.18,East,87,0.2,2.7,46,0.00,,,0.00,Meteorologica,2013-09-10 20:00:00,
2013-09-10 16:05:00,88.2,65.3,30.18,SSW,202,0.7,3.7,46,0.00,,,0.00,Meteorologica,2013-09-10 20:05:00,
2013-09-10 16:10:00,88.4,65.6,30.18,SW,217,2.0,3.7,46,0.00,,,0.00,Meteorologica,2013-09-10 20:10:00,
2013-09-10 17:00:00,90.2,64.3,30.17,SW,223,2.2,6.3,42,0.00,,,0.00,Meteorologica,2013-09-10 21:00:00,
2013-09-10 17:05:00,89.9,64.1,30.17,SSW,193,1.3,6.0,42,0.00,,,0.00,Meteorologica,2013-09-10 21:05:00,
2013-09-10 17:10:00,89.9,64.5,30.17,SW,221,2.0,3.3,43,0.00,,,0.00,Meteorologica,2013-09-10 21:10:00,
2013-09-10 17:15:00,89.7,65.8,30.17,SE,145,0.0,4.2,45,0.00,,,0.00,Meteorologica,2013-09-10 21:15:00,
2013-09-10 17:20:00,89.3,66.3,30.17,WSW,245,1.2,4.3,46,0.00,,,0.00,Meteorologica,2013-09-10 21:20:00,
2013-09-10 17:25:00,88.9,65.5,30.17,SSE,160,1.2,3.3,46,0.00,,,0.00,Meteorologica,2013-09-10 21:25:00,
2013-09-10 17:30:00,88.5,65.9,30.16,SW,225,3.8,4.7,47,0.00,,,0.00,Meteorologica,2013-09-10 21:30:00,
2013-09-10 17:35:00,88.2,64.8,30.16,SSW,209,2.2,5.5,45,0.00,,,0.00,Meteorologica,2013-09-10 21:35:00,
2013-09-10 18:00:00,87.5,66.7,30.17,ENE,73,0.8,4.2,49,0.00,,,0.00,Meteorologica,2013-09-10 22:00:00,
2013-09-10 19:00:00,85.9,69.0,30.17,SE,145,0.0,0.0,56,0.00,,,0.00,Meteorologica,2013-09-10 23:00:00,
2013-09-10 19:05:00,85.7,69.2,30.17,SE,145,0.0,0.0,57,0.00,,,0.00,Meteorologica,2013-09-10 23:05:00,
2013-09-10 20:00:00,82.6,70.6,30.18,SE,145,0.0,0.0,66,0.00,,,0.00,Meteorologica,2013-09-11 00:00:00,
2013-09-10 20:05:00,82.4,70.8,30.18,SE,145,0.0,0.0,67,0.00,,,0.00,Meteorologica,2013-09-11 00:05:00,
2013-09-10 20:10:00,82.1,71.0,30.18,SE,145,0.0,0.0,68,0.00,,,0.00,Meteorologica,2013-09-11 00:10:00,
2013-09-10 20:15:00,81.7,70.7,30.18,SE,145,0.0,0.0,68,0.00,,,0.00,Meteorologica,2013-09-11 00:15:00,
2013-09-10 20:20:00,81.5,70.8,30.18,SE,145,0.0,0.0,69,0.00,,,0.00,Meteorologica,2013-09-11 00:20:00,
2013-09-10 20:25:00,81.1,70.2,30.19,SE,145,0.0,0.0,69,0.00,,,0.00,Meteorologica,2013-09-11 00:25:00,
2013-09-10 20:30:00,80.7,69.8,30.19,SE,145,0.0,0.0,68,0.00,,,0.00,Meteorologica,2013-09-11 00:30:00,
2013-09-10 20:35:00,80.4,69.7,30.19,SE,145,0.0,0.0,69,0.00,,,0.00,Meteorologica,2013-09-11 00:35:00,
2013-09-10 20:40:00,80.5,69.9,30.19,SE,145,0.0,0.0,69,0.00,,,0.00,Meteorologica,2013-09-11 00:40:00,
2013-09-10 20:45:00,80.2,70.0,30.20,SE,145,0.0,0.0,70,0.00,,,0.00,Meteorologica,2013-09-11 00:45:00,
2013-09-10 20:50:00,80.1,70.2,30.20,SE,145,0.0,0.0,71,0.00,,,0.00,Meteorologica,2013-09-11 00:50:00,
2013-09-10 20:55:00,80.0,69.9,30.20,SE,145,0.0,0.0,70,0.00,,,0.00,Meteorologica,2013-09-11 00:55:00,
2013-09-10 21:00:00,79.9,70.0,30.20,SE,145,0.0,0.0,71,0.00,,,0.00,Meteorologica,2013-09-11 01:00:00,
2013-09-10 21:05:00,79.5,69.8,30.21,SE,145,0.0,0.0,71,0.00,,,0.00,Meteorologica,2013-09-11 01:05:00,
2013-09-10 21:10:00,79.5,69.9,30.21,SE,145,0.0,0.0,71,0.00,,,0.00,Meteorologica,2013-09-11 01:10:00,
2013-09-10 21:15:00,79.5,69.8,30.21,SE,145,0.0,0.0,71,0.00,,,0.00,Meteorologica,2013-09-11 01:15:00,
2013-09-10 21:20:00,79.3,69.8,30.21,SE,145,0.0,0.0,72,0.00,,,0.00,Meteorologica,2013-09-11 01:20:00,
2013-09-10 21:26:00,79.1,69.8,30.21,SE,145,0.0,0.0,72,0.00,,,0.00,Meteorologica,2013-09-11 01:26:00,
2013-09-10 21:31:00,79.1,69.9,30.22,SE,145,0.0,0.0,73,0.00,,,0.00,Meteorologica,2013-09-11 01:31:00,
2013-09-10 21:36:00,79.0,69.5,30.22,SE,145,0.0,0.0,72,0.00,,,0.00,Meteorologica,2013-09-11 01:36:00,
2013-09-10 21:41:00,78.8,69.6,30.21,SE,145,0.0,0.0,73,0.00,,,0.00,Meteorologica,2013-09-11 01:41:00,
2013-09-10 21:46:00,78.8,69.5,30.22,SE,145,0.0,0.0,72,0.00,,,0.00,Meteorologica,2013-09-11 01:46:00,
2013-09-10 21:51:00,78.5,69.1,30.22,SE,145,0.0,0.0,72,0.00,,,0.00,Meteorologica,2013-09-11 01:51:00,
2013-09-10 21:56:00,78.5,69.1,30.22,SE,145,0.0,0.0,72,0.00,,,0.00,Meteorologica,2013-09-11 01:56:00,
2013-09-10 22:01:00,78.4,68.8,30.22,SE,145,0.0,0.0,71,0.00,,,0.00,Meteorologica,2013-09-11 02:01:00,
2013-09-10 22:06:00,78.5,69.0,30.22,SE,145,0.0,0.0,72,0.00,,,0.00,Meteorologica,2013-09-11 02:06:00,
2013-09-10 22:12:00,78.5,69.2,30.22,SE,145,0.0,0.0,72,0.00,,,0.00,Meteorologica,2013-09-11 02:12:00,
2013-09-10 22:17:00,78.3,68.9,30.22,SE,145,0.0,0.0,72,0.00,,,0.00,Meteorologica,2013-09-11 02:17:00,
2013-09-10 22:22:00,78.3,68.7,30.22,SE,145,0.0,0.0,72,0.00,,,0.00,Meteorologica,2013-09-11 02:22:00,
2013-09-10 22:28:00,78.2,68.7,30.23,SE,145,0.0,0.0,72,0.00,,,0.00,Meteorologica,2013-09-11 02:28:00,
2013-09-10 22:33:00,78.2,68.7,30.23,East,84,0.0,3.0,72,0.00,,,0.00,Meteorologica,2013-09-11 02:33:00,
2013-09-10 22:38:00,78.3,68.8,30.23,East,84,0.0,0.0,72,0.00,,,0.00,Meteorologica,2013-09-11 02:38:00,
2013-09-10 22:43:00,78.2,68.8,30.24,East,84,0.0,0.0,72,0.00,,,0.00,Meteorologica,2013-09-11 02:43:00,
2013-09-10 22:48:00,78.3,69.1,30.23,East,84,0.0,0.0,72,0.00,,,0.00,Meteorologica,2013-09-11 02:48:00,
2013-09-10 22:53:00,78.2,69.3,30.24,East,84,0.0,0.0,73,0.00,,,0.00,Meteorologica,2013-09-11 02:53:00,
2013-09-10 22:59:00,78.1,69.2,30.24,East,84,0.0,0.0,73,0.00,,,0.00,Meteorologica,2013-09-11 02:59:00,
2013-09-10 23:04:00,77.9,69.2,30.24,East,84,0.0,0.0,74,0.00,,,0.00,Meteorologica,2013-09-11 03:04:00,
2013-09-10 23:09:00,77.9,69.5,30.24,East,84,0.0,0.0,75,0.00,,,0.00,Meteorologica,2013-09-11 03:09:00,
2013-09-10 23:14:00,77.4,69.1,30.24,East,84,0.0,0.0,75,0.00,,,0.00,Meteorologica,2013-09-11 03:14:00,
2013-09-10 23:19:00,77.4,69.5,30.24,East,84,0.0,0.0,76,0.00,,,0.00,Meteorologica,2013-09-11 03:19:00,
2013-09-10 23:25:00,77.2,69.6,30.24,East,84,0.0,0.0,77,0.00,,,0.00,Meteorologica,2013-09-11 03:25:00,
2013-09-10 23:30:00,77.1,69.5,30.24,East,84,0.0,0.0,77,0.00,,,0.00,Meteorologica,2013-09-11 03:30:00,
2013-09-10 23:35:00,76.9,69.5,30.24,East,84,0.0,0.0,77,0.00,,,0.00,Meteorologica,2013-09-11 03:35:00,
2013-09-10 23:40:00,76.8,69.5,30.24,East,84,0.0,0.0,78,0.00,,,0.00,Meteorologica,2013-09-11 03:40:00,
2013-09-10 23:45:00,76.7,69.8,30.23,East,84,0.0,0.0,79,0.00,,,0.00,Meteorologica,2013-09-11 03:45:00,
2013-09-10 23:50:00,76.7,70.0,30.23,East,84,0.0,0.0,79,0.00,,,0.00,Meteorologica,2013-09-11 03:50:00,
2013-09-10 23:55:00,76.5,69.9,30.23,East,84,0.0,0.0,79,0.00,,,0.00,Meteorologica,2013-09-11 03:55:00,